Terminal Aerodrome Forecast
Issued by NWS Green Bay, WI

Home | Current Version | Previous Version | Text Only | Print | Product List | Glossary Off
Versions: 1 2 3 4 5 6 7 8 9 10 11 12 13 14 15 16 17 18 19

000
FTUS43 KGRB 201722
TAFGRB
TAF
KGRB 201722Z 2018/2118 20012KT P6SM BKN250
     FM202300 20012KT P6SM BKN200 WS016/22045KT
     FM210200 21014G18KT P6SM BKN150 WS016/24055KT
     FM210800 24013G18KT P6SM SCT150 BKN250 WS016/27040KT
     FM211200 27014G22KT P6SM SCT050 OVC120 WS016/29030KT
     FM211500 29018G28KT P6SM BKN040=

USA.gov is the U.S. government's official web portal to all federal, state and local government web resources and services.